Laughlin/Bullhead International Airport

Airport
ICAO code: 
KIFP
Summary
ICAO Region: 
NAM
Territory: 
Location: 
Bullhead City, Arizona,
Coordinates: 
Aerial View: 
35° 9' 56.358" N, 114° 33' 25.201" W
Metar
Observation
KIFP 020855Z AUTO 02005KT 10SM CLR 15/M01 A3009 RMK AO2
Station
Bullhead City, Laughlin/Bullhead International Airport
Date/Time
2021-12-02 08:55:00
Wind direction
20°
Wind speed
05 kts
Lowest cloud amount
n/a
Temperature
15°C
Dew point
-1°C
Humidity
33%
Weather condition
n/a

Description

International airport serving Bullhead City, Arizona and Laughlin, Nevada.

Climatology

Desert climate (Köppen climate classification Bwh), with only a few inches of precipitation year-round. Summers are very hot with temperatures frequently exceeding 110 °F (43 °C) in July and August and heat waves involving temperatures above 120 °F (49 °C) are not uncommon. Winters are mild with daytime high temperatures typically between 65–75 °F (18–24 °C) degrees in January and February.

Runways

Designator Length Width Surface Rops
16/34 2292 46 ASP Yes/Yes
Airport map: 
Aerial View: 

SKYbrary Partners:

Safety knowledge contributed by: